createdAt,value
2019-03-11T00:00:25.284Z,6.83
2019-03-11T00:02:53.763Z,10.93
2019-03-11T00:05:21.852Z,7.03
2019-03-11T00:07:49.929Z,9.53
2019-03-11T00:10:18.370Z,11.47
2019-03-11T00:12:46.761Z,12.23
2019-03-11T00:15:14.856Z,6.60
2019-03-11T00:17:42.951Z,8.23
2019-03-11T00:20:11.036Z,7.87
2019-03-11T00:22:39.456Z,9.03
2019-03-11T00:25:07.623Z,15.93
2019-03-11T00:27:35.704Z,12.20
2019-03-11T00:30:06.663Z,7.83
2019-03-11T00:32:35.075Z,11.60
2019-03-11T00:35:03.972Z,10.27
2019-03-11T00:37:32.385Z,8.00
2019-03-11T00:40:01.069Z,10.50
2019-03-11T00:42:29.140Z,8.57
2019-03-11T00:44:57.561Z,7.73
2019-03-11T00:47:26.330Z,9.90
2019-03-11T00:49:54.420Z,11.80
2019-03-11T00:52:22.505Z,8.03
2019-03-11T00:54:50.924Z,10.73
2019-03-11T00:57:19.345Z,11.57
2019-03-11T00:59:47.768Z,13.33
2019-03-11T01:02:16.186Z,8.00
2019-03-11T01:04:44.605Z,8.30
2019-03-11T01:07:13.016Z,9.63
2019-03-11T01:09:41.441Z,10.00
2019-03-11T01:12:09.861Z,12.20
2019-03-11T01:14:38.284Z,13.33
2019-03-11T01:17:06.715Z,16.57
2019-03-11T01:19:35.065Z,10.73
2019-03-11T01:22:03.442Z,8.67
2019-03-11T01:24:31.536Z,14.93
2019-03-11T01:26:59.621Z,8.03
2019-03-11T01:29:27.705Z,7.80
2019-03-11T01:31:56.843Z,12.90
2019-03-11T01:34:25.308Z,11.37
2019-03-11T01:36:53.721Z,8.30
2019-03-11T01:39:22.137Z,13.50
2019-03-11T01:41:50.560Z,9.47
2019-03-11T01:44:18.659Z,10.47
2019-03-11T01:46:46.749Z,12.00
2019-03-11T01:49:14.832Z,14.73
2019-03-11T01:51:42.945Z,12.30
2019-03-11T01:54:11.337Z,11.73
2019-03-11T01:56:39.432Z,14.20
2019-03-11T01:59:07.517Z,10.33
2019-03-11T02:01:35.932Z,10.93
2019-03-11T02:04:04.359Z,15.40
2019-03-11T02:06:32.776Z,12.20
2019-03-11T02:09:20.851Z,13.10
2019-03-11T02:11:49.273Z,9.63
2019-03-11T02:14:17.689Z,11.80
2019-03-11T02:16:46.116Z,13.87
2019-03-11T02:19:14.557Z,10.27
2019-03-11T02:21:43.013Z,10.50
2019-03-11T02:24:11.733Z,10.63
2019-03-11T02:26:40.161Z,7.30
2019-03-11T02:29:08.589Z,15.47
2019-03-11T02:31:37.016Z,10.60
2019-03-11T02:34:05.440Z,11.53
2019-03-11T02:36:34.137Z,11.67
2019-03-11T02:39:02.551Z,11.30
2019-03-11T02:41:30.972Z,13.43
2019-03-11T02:43:59.388Z,13.47
2019-03-11T02:46:27.800Z,11.23
2019-03-11T02:48:56.223Z,8.50
2019-03-11T02:51:24.640Z,9.63
2019-03-11T02:53:53.307Z,9.47
2019-03-11T02:56:21.732Z,11.47
2019-03-11T02:58:50.169Z,17.03
2019-03-11T03:01:35.404Z,7.93
2019-03-11T03:04:05.477Z,13.07
2019-03-11T03:06:33.970Z,9.77
2019-03-11T03:09:02.439Z,11.13
2019-03-11T03:11:30.875Z,13.50
2019-03-11T03:13:59.278Z,13.20
2019-03-11T03:16:27.676Z,8.07
2019-03-11T03:18:56.257Z,11.40
2019-03-11T03:21:24.670Z,12.93
2019-03-11T03:23:53.095Z,13.77
2019-03-11T03:26:21.504Z,14.03
2019-03-11T03:28:49.929Z,12.17
2019-03-11T03:31:18.330Z,14.57
2019-03-11T03:33:46.798Z,8.53
2019-03-11T03:36:15.234Z,12.23
2019-03-11T03:38:43.653Z,8.37
2019-03-11T03:41:12.073Z,12.13
2019-03-11T03:43:40.848Z,11.97
2019-03-11T03:46:18.545Z,7.03
2019-03-11T03:48:39.490Z,9.30
2019-03-11T03:51:08.077Z,11.13
2019-03-11T03:53:36.505Z,12.23
2019-03-11T03:56:04.917Z,13.00
2019-03-11T03:58:33.339Z,12.37
2019-03-11T04:01:01.792Z,9.93
2019-03-11T04:03:30.206Z,17.13
2019-03-11T04:05:58.924Z,10.40
2019-03-11T04:08:27.596Z,10.37
2019-03-11T04:10:56.024Z,13.57
2019-03-11T04:13:24.502Z,10.50
2019-03-11T04:15:53.158Z,7.67
2019-03-11T04:18:22.517Z,11.63
2019-03-11T04:20:50.928Z,13.00
2019-03-11T04:23:19.516Z,13.63
2019-03-11T04:25:47.913Z,10.53
2019-03-11T04:28:16.336Z,13.37
2019-03-11T04:30:44.748Z,10.33
2019-03-11T04:33:13.257Z,10.53
2019-03-11T04:35:41.663Z,11.33
2019-03-11T04:38:10.076Z,7.83
2019-03-11T04:40:38.496Z,7.43
2019-03-11T04:43:07.006Z,14.33
2019-03-11T04:45:35.401Z,9.67
2019-03-11T04:48:03.827Z,12.60
2019-03-11T04:50:32.232Z,10.47
2019-03-11T04:53:00.642Z,9.37
2019-03-11T04:55:29.073Z,6.87
2019-03-11T04:57:57.834Z,6.93
2019-03-11T05:00:51.005Z,9.13
2019-03-11T05:03:19.425Z,8.90
2019-03-11T05:05:47.827Z,6.17
2019-03-11T05:08:16.253Z,6.70
2019-03-11T05:10:44.923Z,8.20
2019-03-11T05:13:13.344Z,8.37
2019-03-11T05:15:41.748Z,3.90
2019-03-11T05:18:10.172Z,7.50
2019-03-11T05:20:38.585Z,6.17
2019-03-11T05:23:07.008Z,5.40
2019-03-11T05:25:35.431Z,2.83
2019-03-11T05:28:03.840Z,2.17
2019-03-11T05:30:32.568Z,2.93
2019-03-11T05:33:00.967Z,5.10
2019-03-11T05:35:48.715Z,3.93
2019-03-11T05:38:17.135Z,5.17
2019-03-11T05:40:45.548Z,3.00
2019-03-11T05:43:13.966Z,2.07
2019-03-11T05:45:42.381Z,3.30
2019-03-11T05:48:11.107Z,1.60
2019-03-11T05:50:39.525Z,1.80
2019-03-11T05:53:07.937Z,6.93
2019-03-11T05:55:36.347Z,4.00
2019-03-11T05:58:05.022Z,5.33
2019-03-11T06:00:33.804Z,4.97
2019-03-11T06:03:02.229Z,5.47
2019-03-11T06:05:30.636Z,5.23
2019-03-11T06:07:59.044Z,4.03
2019-03-11T06:10:27.462Z,2.57
2019-03-11T06:12:55.873Z,3.47
2019-03-11T06:15:24.292Z,4.03
2019-03-11T06:17:52.804Z,4.60
2019-03-11T06:20:23.381Z,1.70
2019-03-11T06:22:51.786Z,2.63
2019-03-11T06:25:20.275Z,4.67
2019-03-11T06:27:48.707Z,2.23
2019-03-11T06:30:17.521Z,1.53
2019-03-11T06:32:45.924Z,1.97
2019-03-11T06:35:14.332Z,5.67
2019-03-11T06:37:42.746Z,2.27
2019-03-11T06:40:12.309Z,2.30
2019-03-11T06:42:44.632Z,0.70
2019-03-11T06:45:34.209Z,4.93
2019-03-11T06:48:02.604Z,1.90
2019-03-11T06:50:31.377Z,3.43
2019-03-11T06:52:59.790Z,2.07
2019-03-11T06:55:28.208Z,3.53
2019-03-11T06:57:56.613Z,1.67
2019-03-11T07:00:25.028Z,1.93
2019-03-11T07:02:53.437Z,2.03
2019-03-11T07:05:21.865Z,3.93
2019-03-11T07:07:50.539Z,1.67
2019-03-11T07:10:18.952Z,1.47
2019-03-11T07:12:47.360Z,4.43
2019-03-11T07:15:16.552Z,4.00
2019-03-11T07:17:45.191Z,1.17
2019-03-11T07:20:14.953Z,3.47
2019-03-11T07:22:43.371Z,1.47
2019-03-11T07:25:11.859Z,2.40
2019-03-11T07:27:40.536Z,2.90
2019-03-11T07:30:14.197Z,4.77
2019-03-11T07:32:42.608Z,4.87
2019-03-11T07:35:11.105Z,3.20
2019-03-11T07:37:39.508Z,2.37
2019-03-11T07:40:15.739Z,5.03
2019-03-11T07:42:44.420Z,2.13
2019-03-11T07:45:14.764Z,2.57
2019-03-11T07:47:43.437Z,2.07
2019-03-11T07:50:13.293Z,3.63
2019-03-11T07:52:41.696Z,4.73
2019-03-11T07:55:13.791Z,4.23
2019-03-11T07:57:42.263Z,2.23
2019-03-11T08:00:18.022Z,2.23
2019-03-11T08:02:46.431Z,2.87
2019-03-11T08:05:15.116Z,2.40
2019-03-11T08:07:43.599Z,5.00
2019-03-11T08:10:17.151Z,2.30
2019-03-11T08:12:45.556Z,4.23
2019-03-11T08:15:15.013Z,2.87
2019-03-11T08:17:43.446Z,2.30
2019-03-11T08:20:13.386Z,2.87
2019-03-11T08:22:41.928Z,6.23
2019-03-11T08:25:11.588Z,3.03
2019-03-11T08:27:39.997Z,3.37
2019-03-11T08:30:13.895Z,2.27
2019-03-11T08:32:42.302Z,2.73
2019-03-11T08:35:10.980Z,2.60
2019-03-11T08:37:39.388Z,3.93
2019-03-11T08:40:16.816Z,1.70
2019-03-11T08:42:45.235Z,1.10
2019-03-11T08:45:19.799Z,4.53
2019-03-11T08:47:48.209Z,3.30
2019-03-11T08:50:16.988Z,3.67
2019-03-11T08:52:45.421Z,2.10
2019-03-11T08:55:14.574Z,4.83
2019-03-11T08:57:43.065Z,6.00
2019-03-11T09:00:13.817Z,2.57
2019-03-11T09:02:42.232Z,2.73
2019-03-11T09:05:11.889Z,8.23
2019-03-11T09:07:40.609Z,2.57
2019-03-11T09:10:29.900Z,4.57
2019-03-11T09:12:58.305Z,5.90
2019-03-11T09:15:27.049Z,2.33
2019-03-11T09:17:55.721Z,3.90
2019-03-11T09:20:24.124Z,2.63
2019-03-11T09:22:52.540Z,5.23
2019-03-11T09:25:22.694Z,3.20
2019-03-11T09:27:51.330Z,1.53
2019-03-11T09:30:43.459Z,5.43
2019-03-11T09:33:11.870Z,2.30
2019-03-11T09:35:40.284Z,5.00
2019-03-11T09:38:08.775Z,2.37
2019-03-11T09:40:37.186Z,4.53
2019-03-11T09:43:05.600Z,3.40
2019-03-11T09:45:34.022Z,4.97
2019-03-11T09:48:02.433Z,5.97
2019-03-11T09:50:30.856Z,5.53
2019-03-11T09:52:59.272Z,4.37
2019-03-11T09:55:28.753Z,5.63
2019-03-11T09:57:57.351Z,3.93
2019-03-11T10:00:27.500Z,2.60
2019-03-11T10:02:56.238Z,6.80
2019-03-11T10:05:24.933Z,5.20
2019-03-11T10:07:53.418Z,5.77
2019-03-11T10:10:27.561Z,2.57
2019-03-11T10:12:56.044Z,3.93
2019-03-11T10:15:24.599Z,6.40
2019-03-11T10:17:53.097Z,3.53
2019-03-11T10:20:21.641Z,3.67
2019-03-11T10:22:50.061Z,2.43
2019-03-11T10:25:19.548Z,3.30
2019-03-11T10:27:48.047Z,1.20
2019-03-11T10:30:18.192Z,2.27
2019-03-11T10:32:46.855Z,1.77
2019-03-11T10:35:33.528Z,3.40
2019-03-11T10:37:48.545Z,1.23
2019-03-11T10:40:20.044Z,4.97
2019-03-11T10:42:48.715Z,2.30
2019-03-11T10:45:17.464Z,1.60
2019-03-11T10:47:46.221Z,6.47
2019-03-11T10:50:16.800Z,3.67
2019-03-11T10:52:45.625Z,3.20
2019-03-11T10:55:19.362Z,2.80
2019-03-11T10:57:48.751Z,7.40
2019-03-11T11:00:32.804Z,5.43
2019-03-11T11:03:01.284Z,4.03
2019-03-11T11:05:29.842Z,6.23
2019-03-11T11:07:58.329Z,2.53
2019-03-11T11:10:26.883Z,3.77
2019-03-11T11:12:55.307Z,4.10
2019-03-11T11:15:28.918Z,2.80
2019-03-11T11:17:57.341Z,3.03
2019-03-11T11:20:26.155Z,2.33
2019-03-11T11:22:55.261Z,4.30
2019-03-11T11:25:28.084Z,1.43
2019-03-11T11:28:09.063Z,2.17
2019-03-11T11:30:49.915Z,3.20
2019-03-11T11:33:18.335Z,3.33
2019-03-11T11:35:46.736Z,1.67
2019-03-11T11:38:15.159Z,1.40
2019-03-11T11:40:43.584Z,6.90
2019-03-11T11:43:12.010Z,6.60
2019-03-11T11:45:40.415Z,2.67
2019-03-11T11:48:09.143Z,4.83
2019-03-11T11:50:37.548Z,1.87
2019-03-11T11:53:05.968Z,5.53
2019-03-11T11:55:34.379Z,2.93
2019-03-11T11:58:02.806Z,2.97
2019-03-11T12:00:42.541Z,3.83
2019-03-11T12:03:10.961Z,1.23
2019-03-11T12:05:39.673Z,4.33
2019-03-11T12:08:08.111Z,3.17
2019-03-11T12:10:36.565Z,5.13
2019-03-11T12:13:05.088Z,3.33
2019-03-11T12:15:33.501Z,3.13
2019-03-11T12:18:01.927Z,2.50
2019-03-11T12:20:31.160Z,2.70
2019-03-11T12:22:59.585Z,6.83
2019-03-11T12:25:28.054Z,2.00
2019-03-11T12:27:58.147Z,4.53
2019-03-11T12:30:28.039Z,2.03
2019-03-11T12:32:56.625Z,3.73
2019-03-11T12:35:25.164Z,3.33
2019-03-11T12:37:53.649Z,2.27
2019-03-11T12:40:22.399Z,5.13
2019-03-11T12:42:50.888Z,5.03
2019-03-11T12:45:26.323Z,5.47
2019-03-11T12:47:54.812Z,1.13
2019-03-11T12:50:30.036Z,2.97
2019-03-11T12:52:58.450Z,1.37
2019-03-11T12:55:26.873Z,2.23
2019-03-11T12:57:55.296Z,2.00
2019-03-11T13:00:24.999Z,1.47
2019-03-11T13:02:53.982Z,3.90
2019-03-11T13:05:22.396Z,4.83
2019-03-11T13:07:50.805Z,2.73
2019-03-11T13:10:26.531Z,4.87
2019-03-11T13:12:55.104Z,1.07
2019-03-11T13:15:23.879Z,2.37
2019-03-11T13:17:52.357Z,7.27
2019-03-11T13:20:26.576Z,4.27
2019-03-11T13:22:54.983Z,2.50
2019-03-11T13:25:23.408Z,3.50
2019-03-11T13:27:51.817Z,4.07
2019-03-11T13:30:20.305Z,3.23
2019-03-11T13:32:48.724Z,4.87
2019-03-11T13:35:17.157Z,5.27
2019-03-11T13:37:45.637Z,3.80
2019-03-11T13:40:15.596Z,2.03
2019-03-11T13:42:44.007Z,4.57
2019-03-11T13:45:14.637Z,2.80
2019-03-11T13:47:43.057Z,5.33
2019-03-11T13:50:13.608Z,3.90
2019-03-11T13:52:42.347Z,6.70
2019-03-11T13:55:12.297Z,9.30
2019-03-11T13:57:40.773Z,2.53
2019-03-11T14:00:15.529Z,3.70
2019-03-11T14:02:43.938Z,2.67
2019-03-11T14:05:12.633Z,4.83
2019-03-11T14:07:41.045Z,1.37
2019-03-11T14:10:11.492Z,3.10
2019-03-11T14:12:40.233Z,4.93
2019-03-11T14:15:22.235Z,6.60
2019-03-11T14:17:51.027Z,4.57
2019-03-11T14:20:19.440Z,3.07
2019-03-11T14:22:47.847Z,4.67
2019-03-11T14:25:16.277Z,1.60
2019-03-11T14:27:44.756Z,1.23
2019-03-11T14:30:21.116Z,4.60
2019-03-11T14:32:49.525Z,3.00
2019-03-11T14:35:17.960Z,1.73
2019-03-11T14:37:46.538Z,3.87
2019-03-11T14:40:16.191Z,5.80
2019-03-11T14:42:44.593Z,3.50
2019-03-11T14:45:14.866Z,3.43
2019-03-11T14:47:43.268Z,1.17
2019-03-11T14:50:14.308Z,4.80
2019-03-11T14:52:43.060Z,2.63
2019-03-11T14:55:12.725Z,3.20
2019-03-11T14:57:41.210Z,4.03
2019-03-11T15:00:20.013Z,5.23
2019-03-11T15:02:48.731Z,3.80
2019-03-11T15:05:18.270Z,5.07
2019-03-11T15:07:47.142Z,4.07
2019-03-11T15:10:17.550Z,2.23
2019-03-11T15:12:45.951Z,6.10
2019-03-11T15:15:24.505Z,4.30
2019-03-11T15:17:52.995Z,4.93
2019-03-11T15:20:21.422Z,5.33
2019-03-11T15:22:49.973Z,7.27
2019-03-11T15:25:19.528Z,6.83
2019-03-11T15:27:48.069Z,6.47
2019-03-11T15:30:23.440Z,4.43
2019-03-11T15:32:51.852Z,2.90
2019-03-11T15:35:20.585Z,5.03
2019-03-11T15:37:49.253Z,4.97
2019-03-11T15:40:18.542Z,3.43
2019-03-11T15:42:46.996Z,3.17
2019-03-11T15:45:16.548Z,3.23
2019-03-11T15:47:45.307Z,6.00
2019-03-11T15:50:19.801Z,4.80
2019-03-11T15:52:48.296Z,5.60
2019-03-11T15:55:17.556Z,4.60
2019-03-11T15:57:46.274Z,3.47
2019-03-11T16:00:17.321Z,4.73
2019-03-11T16:02:46.107Z,4.10
2019-03-11T16:05:16.394Z,4.17
2019-03-11T16:07:44.813Z,3.87
2019-03-11T16:10:17.012Z,4.27
2019-03-11T16:12:44.944Z,2.67
2019-03-11T16:15:14.503Z,3.27
2019-03-11T16:17:42.993Z,6.27
2019-03-11T16:20:14.304Z,1.97
2019-03-11T16:22:42.719Z,5.47
2019-03-11T16:25:11.675Z,5.13
2019-03-11T16:27:40.093Z,4.27
2019-03-11T16:30:23.337Z,2.77
2019-03-11T16:32:59.496Z,3.77
2019-03-11T16:35:23.898Z,6.70
2019-03-11T16:37:52.386Z,2.00
2019-03-11T16:40:21.194Z,3.93
2019-03-11T16:42:49.969Z,5.13
2019-03-11T16:45:19.828Z,3.53
2019-03-11T16:47:48.879Z,3.37
2019-03-11T16:50:18.651Z,2.70
2019-03-11T16:52:47.069Z,2.70
2019-03-11T16:55:19.399Z,3.33
2019-03-11T16:57:47.813Z,3.33
2019-03-11T17:00:22.473Z,3.10
2019-03-11T17:02:50.961Z,3.50
2019-03-11T17:05:19.375Z,2.40
2019-03-11T17:07:47.872Z,2.40
2019-03-11T17:10:18.238Z,2.20
2019-03-11T17:12:46.653Z,7.10
2019-03-11T17:15:15.134Z,2.73
2019-03-11T17:17:43.569Z,5.43
2019-03-11T17:20:15.409Z,2.97
2019-03-11T17:22:43.824Z,4.70
2019-03-11T17:25:13.575Z,2.33
2019-03-11T17:27:41.993Z,3.20
2019-03-11T17:30:16.252Z,1.70
2019-03-11T17:32:44.756Z,6.50
2019-03-11T17:35:14.539Z,4.23
2019-03-11T17:37:43.384Z,1.73
2019-03-11T17:40:14.864Z,5.03
2019-03-11T17:42:43.403Z,3.30
2019-03-11T17:45:13.882Z,5.33
2019-03-11T17:47:42.455Z,3.60
2019-03-11T17:50:13.770Z,2.10
2019-03-11T17:52:42.284Z,1.70
2019-03-11T17:55:11.737Z,3.40
2019-03-11T17:57:40.320Z,2.57
2019-03-11T18:00:25.742Z,3.80
2019-03-11T18:02:54.905Z,4.23
2019-03-11T18:05:23.658Z,3.57
2019-03-11T18:07:52.485Z,3.03
2019-03-11T18:10:20.917Z,3.03
2019-03-11T18:12:49.391Z,3.53
2019-03-11T18:15:18.344Z,5.80
2019-03-11T18:17:46.761Z,4.03
2019-03-11T18:20:19.273Z,5.87
2019-03-11T18:22:47.933Z,2.70
2019-03-11T18:25:17.689Z,2.03
2019-03-11T18:27:46.297Z,3.37
2019-03-11T18:30:28.269Z,4.17
2019-03-11T18:32:56.751Z,3.33
2019-03-11T18:35:25.224Z,4.60
2019-03-11T18:38:03.333Z,4.67
2019-03-11T18:40:23.949Z,6.63
2019-03-11T18:42:52.370Z,4.63
2019-03-11T18:45:20.810Z,5.87
2019-03-11T18:47:49.221Z,3.73
2019-03-11T18:50:24.922Z,5.10
2019-03-11T18:52:53.554Z,8.03
2019-03-11T18:55:22.211Z,4.43
2019-03-11T18:57:50.753Z,3.87
2019-03-11T19:00:20.632Z,3.73
2019-03-11T19:02:49.186Z,4.77
2019-03-11T19:05:22.552Z,3.53
2019-03-11T19:07:51.722Z,3.80
2019-03-11T19:10:20.280Z,7.07
2019-03-11T19:12:48.925Z,3.53
2019-03-11T19:15:19.029Z,2.83
2019-03-11T19:17:47.498Z,4.07
2019-03-11T19:20:21.109Z,4.83
2019-03-11T19:22:49.593Z,2.77
2019-03-11T19:25:18.311Z,3.97
2019-03-11T19:27:46.985Z,6.83
2019-03-11T19:30:18.340Z,3.47
2019-03-11T19:32:46.917Z,2.93
2019-03-11T19:35:16.000Z,6.73
2019-03-11T19:37:44.507Z,3.97
2019-03-11T19:40:15.895Z,4.63
2019-03-11T19:42:44.641Z,4.00
2019-03-11T19:45:15.019Z,4.30
2019-03-11T19:47:43.556Z,5.03
2019-03-11T19:50:16.603Z,1.90
2019-03-11T19:52:57.336Z,2.80
2019-03-11T19:55:15.356Z,3.30
2019-03-11T19:57:43.902Z,4.70
2019-03-11T20:00:22.964Z,2.87
2019-03-11T20:02:51.457Z,3.37
2019-03-11T20:05:30.563Z,2.60
2019-03-11T20:07:59.025Z,7.60
2019-03-11T20:10:27.662Z,4.10
2019-03-11T20:12:56.114Z,6.43
2019-03-11T20:15:24.702Z,3.40
2019-03-11T20:18:12.781Z,3.83
2019-03-11T20:20:41.276Z,4.07
2019-03-11T20:23:09.679Z,6.07
2019-03-11T20:25:38.540Z,4.23
2019-03-11T20:28:06.989Z,3.17
2019-03-11T20:30:35.892Z,4.67
2019-03-11T20:33:04.496Z,2.87
2019-03-11T20:35:33.064Z,3.33
2019-03-11T20:38:01.506Z,3.07
2019-03-11T20:40:30.009Z,2.50
2019-03-11T20:42:58.442Z,3.80
2019-03-11T20:45:26.917Z,4.73
2019-03-11T20:47:55.680Z,5.27
2019-03-11T20:50:24.135Z,2.17
2019-03-11T20:52:52.549Z,2.73
2019-03-11T20:55:21.122Z,2.43
2019-03-11T20:57:50.059Z,5.00
2019-03-11T21:00:23.353Z,4.10
2019-03-11T21:02:52.153Z,3.63
2019-03-11T21:05:23.578Z,5.50
2019-03-11T21:07:52.104Z,5.17
2019-03-11T21:10:20.612Z,1.93
2019-03-11T21:12:49.172Z,4.90
2019-03-11T21:15:17.781Z,3.73
2019-03-11T21:17:46.251Z,2.97
2019-03-11T21:20:16.072Z,7.37
2019-03-11T21:22:44.625Z,3.80
2019-03-11T21:25:15.808Z,2.83
2019-03-11T21:27:44.375Z,2.23
2019-03-11T21:30:15.564Z,4.23
2019-03-11T21:32:44.061Z,4.07
2019-03-11T21:35:31.967Z,5.60
2019-03-11T21:38:00.455Z,5.67
2019-03-11T21:40:29.177Z,4.87
2019-03-11T21:42:57.583Z,3.17
2019-03-11T21:45:34.156Z,4.43
2019-03-11T21:47:56.132Z,6.67
2019-03-11T21:50:26.125Z,4.80
2019-03-11T21:52:54.599Z,2.47
2019-03-11T21:55:23.226Z,3.00
2019-03-11T21:57:51.642Z,3.77
2019-03-11T22:00:33.546Z,4.23
2019-03-11T22:02:53.845Z,7.90
2019-03-11T22:05:22.345Z,3.97
2019-03-11T22:07:50.753Z,3.57
2019-03-11T22:10:19.848Z,4.60
2019-03-11T22:12:48.341Z,4.33
2019-03-11T22:15:19.889Z,3.77
2019-03-11T22:17:48.354Z,5.27
2019-03-11T22:20:17.536Z,5.80
2019-03-11T22:22:46.012Z,5.03
2019-03-11T22:25:17.504Z,3.93
2019-03-11T22:27:46.093Z,10.13
2019-03-11T22:30:24.253Z,5.07
2019-03-11T22:32:52.870Z,7.80
2019-03-11T22:35:21.277Z,6.77
2019-03-11T22:37:49.684Z,4.47
2019-03-11T22:40:19.153Z,4.13
2019-03-11T22:42:47.556Z,2.87
2019-03-11T22:45:21.537Z,3.70
2019-03-11T22:47:50.785Z,3.30
2019-03-11T22:50:19.735Z,3.53
2019-03-11T22:53:07.472Z,2.87
2019-03-11T22:55:38.904Z,3.13
2019-03-11T22:58:06.023Z,5.13
2019-03-11T23:00:41.846Z,3.50
2019-03-11T23:03:11.005Z,6.00
2019-03-11T23:05:39.439Z,4.40
2019-03-11T23:08:07.840Z,4.07
2019-03-11T23:10:36.255Z,4.87
2019-03-11T23:13:04.730Z,4.07
2019-03-11T23:15:32.819Z,6.43
2019-03-11T23:18:00.903Z,4.27
2019-03-11T23:20:28.987Z,4.90
2019-03-11T23:22:57.060Z,6.33
2019-03-11T23:25:25.190Z,4.93
2019-03-11T23:27:53.256Z,4.37
2019-03-11T23:30:21.340Z,8.63
2019-03-11T23:32:49.834Z,4.73
2019-03-11T23:35:17.927Z,5.97
2019-03-11T23:37:46.328Z,4.87
2019-03-11T23:40:14.754Z,3.97
2019-03-11T23:42:45.860Z,4.33
2019-03-11T23:45:14.276Z,3.43
2019-03-11T23:47:42.745Z,6.60
2019-03-11T23:50:11.482Z,4.07
2019-03-11T23:52:39.559Z,7.37
2019-03-11T23:55:08.517Z,5.37
2019-03-11T23:57:36.943Z,6.37
